Time;durP1;ratioP1;P1;durP2;ratioP2;P2;SDS_P1;SDS_P2;PMS_P1;PMS_P2;Temp;Humidity;BMP_temperature;BMP_pressure;BME280_temperature;BME280_humidity;BME280_pressure;Samples;Min_cycle;Max_cycle;Signal;HPM_P1;HPM_P2
2023/01/12 00:02:34;;;;;;;2.10;0.73;;;4.70;99.90;;;;;;10236396;23;20012;-80
2023/01/12 00:06:35;;;;;;;1.65;0.70;;;4.70;99.90;;;;;;10235139;23;20001;-80
2023/01/12 00:10:35;;;;;;;1.75;0.50;;;4.70;99.90;;;;;;10239496;23;20009;-80
2023/01/12 00:14:37;;;;;;;2.60;0.82;;;4.60;99.90;;;;;;10237968;23;20088;-80
2023/01/12 00:18:37;;;;;;;4.50;1.15;;;4.60;99.90;;;;;;10238034;23;20001;-79
2023/01/12 00:22:38;;;;;;;4.97;0.77;;;4.50;99.90;;;;;;10237201;23;20502;-80
2023/01/12 00:26:38;;;;;;;3.75;0.98;;;4.50;99.90;;;;;;10237191;23;20005;-79
2023/01/12 00:30:39;;;;;;;1.73;0.80;;;4.50;99.90;;;;;;10239677;23;20462;-80
2023/01/12 00:34:39;;;;;;;1.27;0.70;;;4.50;99.90;;;;;;10236047;23;20013;-80
2023/01/12 00:38:40;;;;;;;6.10;0.95;;;4.30;99.90;;;;;;10238498;23;20004;-80
2023/01/12 00:47:00;;;;;;;2.92;0.98;;;4.30;99.90;;;;;;10237455;23;20016;-79
2023/01/12 00:51:03;;;;;;;3.00;1.17;;;4.20;99.90;;;;;;10235652;23;20104;-80
2023/01/12 00:55:04;;;;;;;2.25;0.95;;;4.30;99.90;;;;;;10237342;23;20005;-80
2023/01/12 00:59:05;;;;;;;2.42;0.90;;;4.30;99.90;;;;;;10236085;23;20016;-81
2023/01/12 01:03:06;;;;;;;4.10;0.80;;;4.40;99.90;;;;;;10237036;23;20020;-80
2023/01/12 01:07:06;;;;;;;2.97;0.70;;;4.40;99.90;;;;;;10235822;23;20009;-80
2023/01/12 01:11:09;;;;;;;1.25;0.70;;;4.40;99.90;;;;;;10237402;23;20008;-80
2023/01/12 01:15:10;;;;;;;1.85;0.60;;;4.40;99.90;;;;;;10234657;23;20032;-79
2023/01/12 01:19:10;;;;;;;0.93;0.88;;;4.40;99.90;;;;;;10235019;23;20001;-80
2023/01/12 01:23:11;;;;;;;1.45;0.40;;;4.40;99.90;;;;;;10234357;23;20005;-80
2023/01/12 01:27:12;;;;;;;1.00;0.60;;;4.50;99.90;;;;;;10233792;23;20001;-81
2023/01/12 01:31:15;;;;;;;2.10;0.95;;;4.50;99.90;;;;;;10234443;23;20063;-81
2023/01/12 01:35:15;;;;;;;5.78;1.13;;;4.60;99.90;;;;;;10234059;23;20016;-79
2023/01/12 01:39:16;;;;;;;2.80;0.70;;;4.60;99.90;;;;;;10234510;23;20392;-80
2023/01/12 01:43:18;;;;;;;2.25;0.80;;;4.50;99.90;;;;;;10236023;23;20067;-79
2023/01/12 01:47:30;;;;;;;1.17;0.60;;;4.40;99.90;;;;;;10233583;23;20047;-80
2023/01/12 01:51:30;;;;;;;3.00;0.50;;;4.40;99.90;;;;;;10234621;23;20009;-79
2023/01/12 01:55:41;;;;;;;2.05;0.60;;;4.50;99.90;;;;;;10233884;23;20067;-80
2023/01/12 01:59:49;;;;;;;1.52;0.55;;;4.50;99.90;;;;;;10235016;23;20064;-79
2023/01/12 02:03:52;;;;;;;1.90;0.60;;;4.60;99.90;;;;;;10235927;23;20012;-81
2023/01/12 02:07:53;;;;;;;2.17;0.50;;;4.50;99.90;;;;;;10234365;23;20012;-79
2023/01/12 02:16:27;;;;;;;1.97;0.70;;;4.50;99.90;;;;;;10236629;23;20020;-81
2023/01/12 02:20:35;;;;;;;0.30;0.30;;;4.50;99.90;;;;;;10235558;23;20501;-80
2023/01/12 02:24:49;;;;;;;2.60;0.40;;;4.50;99.90;;;;;;10234513;23;20009;-79
2023/01/12 02:29:12;;;;;;;5.85;0.77;;;4.60;99.90;;;;;;10233920;23;20347;-80
2023/01/12 02:33:42;;;;;;;1.55;0.60;;;4.50;99.90;;;;;;10234950;23;20343;-80
2023/01/12 02:37:52;;;;;;;5.27;1.03;;;4.50;99.90;;;;;;10235209;23;20019;-80
2023/01/12 02:46:41;;;;;;;1.65;1.08;;;4.40;99.90;;;;;;10236810;23;20019;-79
2023/01/12 02:50:57;;;;;;;2.22;0.43;;;4.40;99.90;;;;;;10234596;23;20013;-80
2023/01/12 02:54:59;;;;;;;3.08;0.50;;;4.40;99.90;;;;;;10235033;23;20076;-80
2023/01/12 02:59:06;;;;;;;1.67;0.32;;;4.30;99.90;;;;;;10235640;23;19997;-80
2023/01/12 03:03:06;;;;;;;2.28;0.57;;;4.20;99.90;;;;;;10236999;23;20466;-81
2023/01/12 03:07:13;;;;;;;2.30;0.50;;;4.20;99.90;;;;;;10237038;23;20009;-79
2023/01/12 03:11:17;;;;;;;1.23;0.35;;;4.20;99.90;;;;;;10239647;23;20072;-81
2023/01/12 03:15:18;;;;;;;1.45;0.40;;;4.20;99.90;;;;;;10238381;23;20108;-79
2023/01/12 03:19:28;;;;;;;3.40;0.75;;;4.20;99.90;;;;;;10238810;23;20012;-81
2023/01/12 03:23:44;;;;;;;0.82;0.43;;;4.20;99.90;;;;;;10241588;23;20015;-80
2023/01/12 03:27:50;;;;;;;0.30;0.30;;;4.20;99.90;;;;;;10241192;23;20051;-81
2023/01/12 03:31:51;;;;;;;1.70;0.80;;;4.20;99.90;;;;;;10242901;23;20032;-80
2023/01/12 03:36:14;;;;;;;0.93;0.65;;;4.30;99.90;;;;;;10242611;23;20048;-80
2023/01/12 03:40:17;;;;;;;2.78;0.63;;;4.30;99.90;;;;;;10241865;23;19997;-80
2023/01/12 03:44:27;;;;;;;0.63;0.28;;;4.20;99.90;;;;;;10240213;23;20005;-80
2023/01/12 03:48:51;;;;;;;0.77;0.35;;;4.10;99.90;;;;;;10239940;23;20005;-79
2023/01/12 03:52:55;;;;;;;2.00;0.52;;;4.20;99.90;;;;;;10240633;23;20005;-81
2023/01/12 03:56:56;;;;;;;3.80;0.75;;;4.30;99.90;;;;;;10242409;23;20004;-80
2023/01/12 04:00:57;;;;;;;3.75;0.65;;;4.20;99.90;;;;;;10241957;23;20006;-80
2023/01/12 04:04:57;;;;;;;3.42;0.65;;;4.10;99.90;;;;;;10237822;23;20017;-80
2023/01/12 04:08:58;;;;;;;2.22;0.43;;;4.10;99.90;;;;;;10234684;23;20440;-80
2023/01/12 04:12:58;;;;;;;3.33;0.98;;;4.10;99.90;;;;;;10234222;23;20104;-79
2023/01/12 04:16:59;;;;;;;3.03;0.57;;;4.10;99.90;;;;;;10235205;23;20001;-79
2023/01/12 04:20:59;;;;;;;1.50;0.50;;;4.10;99.90;;;;;;10235517;23;20000;-79
2023/01/12 04:25:00;;;;;;;3.10;0.57;;;4.20;99.90;;;;;;10235235;23;20324;-81
2023/01/12 04:29:00;;;;;;;1.27;0.40;;;4.20;99.90;;;;;;10235723;23;20085;-79
2023/01/12 04:33:06;;;;;;;3.65;0.73;;;4.30;99.90;;;;;;10233030;23;20058;-79
2023/01/12 04:37:07;;;;;;;3.30;0.77;;;4.20;99.90;;;;;;10233133;23;20359;-80
2023/01/12 04:41:08;;;;;;;1.30;0.35;;;4.20;99.90;;;;;;10235108;23;20036;-80
2023/01/12 04:45:09;;;;;;;3.30;0.50;;;4.10;99.90;;;;;;10231459;23;20367;-80
2023/01/12 04:49:09;;;;;;;2.10;0.47;;;4.10;99.90;;;;;;10233375;23;20067;-79
2023/01/12 04:53:11;;;;;;;3.83;0.63;;;4.10;99.90;;;;;;10233150;23;20001;-79
2023/01/12 04:57:12;;;;;;;2.72;0.68;;;3.90;99.90;;;;;;10233788;23;20104;-80
2023/01/12 05:01:18;;;;;;;2.55;0.50;;;3.90;99.90;;;;;;10234194;23;20005;-81
2023/01/12 05:05:18;;;;;;;3.42;0.60;;;3.80;99.90;;;;;;10234339;23;20019;-80
2023/01/12 05:13:38;;;;;;;1.52;0.47;;;4.00;99.90;;;;;;10234911;23;20031;-79
2023/01/12 05:17:38;;;;;;;1.00;0.43;;;4.00;99.90;;;;;;10232677;23;20013;-79
2023/01/12 05:21:39;;;;;;;2.55;0.43;;;4.20;99.90;;;;;;10234194;23;19997;-79
2023/01/12 05:25:39;;;;;;;0.47;0.30;;;4.20;99.90;;;;;;10232303;23;20005;-78
2023/01/12 05:29:40;;;;;;;3.67;0.40;;;4.30;99.90;;;;;;10231976;23;20008;-79
2023/01/12 05:33:41;;;;;;;3.40;0.40;;;4.40;99.90;;;;;;10230985;23;20036;-79
2023/01/12 05:37:42;;;;;;;3.58;0.73;;;4.50;99.90;;;;;;10230865;23;20008;-79
2023/01/12 05:46:04;;;;;;;3.03;0.70;;;4.60;99.90;;;;;;10230646;23;20459;-79
2023/01/12 05:50:05;;;;;;;2.88;0.50;;;4.70;99.90;;;;;;10230542;23;20056;-79
2023/01/12 05:54:06;;;;;;;2.80;0.63;;;4.70;99.90;;;;;;10228940;23;20009;-80
2023/01/12 05:58:07;;;;;;;1.25;0.60;;;4.70;99.90;;;;;;10229304;23;20041;-79
2023/01/12 06:02:10;;;;;;;6.03;1.05;;;4.80;99.90;;;;;;10228618;23;20060;-78
2023/01/12 06:06:11;;;;;;;2.17;0.50;;;4.80;99.90;;;;;;10231576;23;20005;-79
2023/01/12 06:10:11;;;;;;;0.60;0.28;;;4.80;99.90;;;;;;10230229;23;20005;-79
2023/01/12 06:14:12;;;;;;;0.88;0.32;;;4.90;99.90;;;;;;10230705;23;20020;-80
2023/01/12 06:18:12;;;;;;;1.05;0.43;;;5.00;99.90;;;;;;10229950;23;20009;-79
2023/01/12 06:22:13;;;;;;;3.22;0.40;;;5.00;99.90;;;;;;10230174;23;19997;-79
2023/01/12 06:26:14;;;;;;;3.13;0.88;;;5.10;99.90;;;;;;10231573;23;20001;-80
2023/01/12 06:30:14;;;;;;;1.45;0.50;;;5.10;99.90;;;;;;10230711;23;20009;-80
2023/01/12 06:34:15;;;;;;;4.25;0.60;;;5.10;99.90;;;;;;10230293;23;20009;-79
2023/01/12 06:38:16;;;;;;;1.95;0.55;;;5.10;99.90;;;;;;10230815;23;20009;-79
2023/01/12 06:42:28;;;;;;;4.85;0.50;;;5.10;99.90;;;;;;10230273;23;20001;-80
2023/01/12 06:46:29;;;;;;;1.70;0.60;;;5.20;99.90;;;;;;10230074;23;20009;-80
2023/01/12 06:50:31;;;;;;;0.70;0.47;;;5.30;99.90;;;;;;10230068;23;20019;-79
2023/01/12 06:54:31;;;;;;;1.77;0.68;;;5.30;99.90;;;;;;10229133;23;20009;-79
2023/01/12 06:58:32;;;;;;;6.82;0.82;;;5.30;99.90;;;;;;10229691;23;20055;-80
2023/01/12 07:02:32;;;;;;;1.50;0.65;;;5.40;99.90;;;;;;10231343;23;20012;-80
2023/01/12 07:06:33;;;;;;;3.38;0.75;;;5.40;99.90;;;;;;10229782;23;20460;-80
2023/01/12 07:10:35;;;;;;;1.25;0.60;;;5.50;99.90;;;;;;10229969;23;20044;-79
2023/01/12 07:14:35;;;;;;;0.93;0.47;;;5.50;99.90;;;;;;10231235;23;20388;-79
2023/01/12 07:18:36;;;;;;;0.77;0.20;;;5.50;99.90;;;;;;10230050;23;20052;-79
2023/01/12 07:22:38;;;;;;;0.30;0.30;;;5.50;99.90;;;;;;10231376;23;20501;-80
2023/01/12 07:26:38;;;;;;;1.52;0.50;;;5.50;99.90;;;;;;10229986;23;20456;-79
2023/01/12 07:30:39;;;;;;;1.58;0.57;;;5.60;99.90;;;;;;10232120;23;20084;-80
2023/01/12 07:34:39;;;;;;;2.03;0.75;;;5.60;99.90;;;;;;10230142;23;20012;-79
2023/01/12 07:38:41;;;;;;;4.03;0.52;;;5.70;99.90;;;;;;10229958;23;20067;-80
2023/01/12 07:42:42;;;;;;;2.30;0.52;;;5.80;99.90;;;;;;10229987;23;20001;-79
2023/01/12 07:46:43;;;;;;;2.05;0.73;;;5.80;99.90;;;;;;10229548;23;20006;-79
2023/01/12 07:50:43;;;;;;;2.30;0.70;;;5.90;99.90;;;;;;10233690;23;20001;-79
2023/01/12 07:54:44;;;;;;;1.25;0.50;;;5.90;99.90;;;;;;10233420;23;20016;-79
2023/01/12 07:58:48;;;;;;;2.60;0.65;;;5.90;99.90;;;;;;10236164;23;19993;-80
2023/01/12 08:02:53;;;;;;;5.03;0.55;;;6.00;99.90;;;;;;10235181;23;20017;-80
2023/01/12 08:06:54;;;;;;;2.85;0.57;;;6.10;99.90;;;;;;10234731;23;20575;-79
2023/01/12 08:10:59;;;;;;;0.70;0.25;;;6.00;99.90;;;;;;10233724;23;20005;-78
2023/01/12 08:15:00;;;;;;;1.02;0.38;;;6.10;99.90;;;;;;10232263;23;20060;-80
2023/01/12 08:23:34;;;;;;;2.10;0.63;;;6.20;99.90;;;;;;10233753;23;20015;-79
2023/01/12 08:27:37;;;;;;;2.35;0.63;;;6.20;99.90;;;;;;10232072;23;20462;-79
2023/01/12 08:31:38;;;;;;;3.78;0.60;;;6.40;99.90;;;;;;10233720;23;20025;-80
2023/01/12 08:35:39;;;;;;;3.80;0.68;;;6.50;99.90;;;;;;10232860;23;20009;-79
2023/01/12 08:39:39;;;;;;;1.95;0.65;;;6.50;99.90;;;;;;10232910;23;20432;-79
2023/01/12 08:47:59;;;;;;;5.00;0.70;;;6.40;99.90;;;;;;10232728;23;20100;-79
2023/01/12 08:51:59;;;;;;;1.92;0.50;;;6.70;99.90;;;;;;10231451;23;20009;-79
2023/01/12 08:56:00;;;;;;;4.18;0.75;;;6.70;99.90;;;;;;10230615;23;20009;-80
2023/01/12 09:00:01;;;;;;;7.22;0.65;;;6.70;99.90;;;;;;10231499;23;20087;-79
2023/01/12 09:04:01;;;;;;;1.05;0.60;;;6.70;99.90;;;;;;10230614;23;20459;-80
2023/01/12 09:08:02;;;;;;;2.08;0.43;;;6.80;99.90;;;;;;10231208;23;20096;-79
2023/01/12 09:12:03;;;;;;;1.75;0.52;;;6.80;99.90;;;;;;10230990;23;20083;-78
2023/01/12 09:16:06;;;;;;;3.08;0.82;;;6.80;99.90;;;;;;10232092;23;20084;-79
2023/01/12 09:20:07;;;;;;;0.47;0.38;;;6.80;99.90;;;;;;10231699;23;20073;-79
2023/01/12 09:24:09;;;;;;;1.75;0.50;;;6.90;99.90;;;;;;10230427;23;20336;-79
2023/01/12 09:28:10;;;;;;;1.98;0.77;;;7.00;99.90;;;;;;10232560;23;20076;-78
2023/01/12 09:32:10;;;;;;;0.85;0.30;;;7.10;99.90;;;;;;10232396;23;20340;-80
2023/01/12 09:36:20;;;;;;;2.38;0.60;;;7.20;99.90;;;;;;10230960;23;20099;-79
2023/01/12 09:40:20;;;;;;;1.83;0.43;;;7.20;99.90;;;;;;10231612;23;20087;-78
2023/01/12 09:49:08;;;;;;;0.35;0.30;;;7.10;99.90;;;;;;10231903;23;20020;-78
2023/01/12 09:53:18;;;;;;;2.08;0.43;;;7.10;99.90;;;;;;10231418;23;20553;-79
2023/01/12 09:57:34;;;;;;;2.27;0.63;;;7.10;99.90;;;;;;10231995;23;20267;-79
2023/01/12 10:01:36;;;;;;;1.00;0.50;;;7.20;99.90;;;;;;10232357;23;20339;-80
2023/01/12 10:05:53;;;;;;;3.83;0.50;;;7.20;99.90;;;;;;10232417;23;20341;-80
2023/01/12 10:09:53;;;;;;;0.28;0.10;;;7.20;99.90;;;;;;10241745;23;19997;-82
2023/01/12 10:14:03;;;;;;;3.30;0.88;;;7.40;99.90;;;;;;10200798;23;20005;-82
2023/01/12 10:18:16;;;;;;;4.03;0.60;;;7.50;99.90;;;;;;10172519;23;20009;-82
2023/01/12 10:22:37;;;;;;;0.13;0.13;;;7.60;99.90;;;;;;10189935;23;19998;-81
2023/01/12 10:26:42;;;;;;;1.35;0.25;;;7.60;99.90;;;;;;10173799;23;20009;-82
2023/01/12 10:30:44;;;;;;;0.80;0.22;;;7.50;99.90;;;;;;10184117;23;20002;-80
2023/01/12 10:34:51;;;;;;;0.98;0.30;;;7.40;99.90;;;;;;10166788;23;20021;-81
2023/01/12 10:38:56;;;;;;;4.90;0.63;;;7.50;99.90;;;;;;10159809;23;20002;-82
2023/01/12 10:43:18;;;;;;;4.30;0.57;;;7.60;99.90;;;;;;10166877;23;20445;-81
2023/01/12 10:47:18;;;;;;;2.20;0.25;;;7.60;99.90;;;;;;10159092;23;20013;-82
2023/01/12 10:51:53;;;;;;;1.10;0.30;;;7.50;99.90;;;;;;10161475;23;20016;-80
2023/01/12 10:55:54;;;;;;;5.38;0.40;;;7.50;99.90;;;;;;10185346;23;20009;-82
2023/01/12 10:59:57;;;;;;;0.75;0.30;;;7.30;99.90;;;;;;10187098;23;20001;-82
2023/01/12 11:04:04;;;;;;;3.13;0.50;;;7.50;99.90;;;;;;10184287;23;20093;-81
2023/01/12 11:08:27;;;;;;;1.90;0.40;;;7.60;99.90;;;;;;10173906;23;20010;-82
2023/01/12 11:12:36;;;;;;;2.42;0.70;;;7.50;99.90;;;;;;10169905;23;20013;-81
2023/01/12 11:16:46;;;;;;;0.90;0.35;;;7.50;99.90;;;;;;10159036;23;20065;-81
2023/01/12 11:21:00;;;;;;;4.80;0.82;;;7.50;99.90;;;;;;10162036;23;20005;-83
2023/01/12 11:25:16;;;;;;;1.33;0.55;;;7.50;99.90;;;;;;10158795;23;20053;-81
2023/01/12 11:29:54;;;;;;;0.65;0.43;;;7.60;99.90;;;;;;10160578;23;20045;-81
2023/01/12 11:34:00;;;;;;;2.65;0.40;;;7.60;99.90;;;;;;10159055;23;20069;-82
2023/01/12 11:38:24;;;;;;;1.80;0.60;;;7.50;99.90;;;;;;10173147;23;20017;-82
2023/01/12 11:47:03;;;;;;;0.95;0.30;;;7.50;99.90;;;;;;10184867;23;20020;-81
2023/01/12 11:51:04;;;;;;;4.53;0.47;;;7.50;99.90;;;;;;10158912;23;20013;-81
2023/01/12 11:55:05;;;;;;;1.48;0.40;;;7.50;99.90;;;;;;10157998;23;20021;-81
2023/01/12 11:59:15;;;;;;;2.55;0.65;;;7.70;99.90;;;;;;10184949;23;20436;-82
2023/01/12 12:03:15;;;;;;;;;;;7.90;99.90;;;;;;10159278;23;20352;-82
2023/01/12 12:07:21;;;;;;;;;;;8.10;99.90;;;;;;10185421;23;19897;-82
2023/01/12 12:11:29;;;;;;;5.57;1.92;;;8.30;99.90;;;;;;10158378;23;19900;-81
2023/01/12 12:15:37;;;;;;;3.35;0.75;;;8.10;99.90;;;;;;10184212;23;20005;-82
2023/01/12 12:20:03;;;;;;;5.25;1.75;;;8.20;99.90;;;;;;10158866;23;20009;-81
2023/01/12 12:24:29;;;;;;;5.28;0.90;;;8.20;99.90;;;;;;10160028;23;20037;-81
2023/01/12 12:28:42;;;;;;;3.30;1.17;;;8.30;99.90;;;;;;10158132;23;20021;-82
2023/01/12 12:33:03;;;;;;;1.95;0.60;;;8.40;99.90;;;;;;10158038;23;20373;-81
2023/01/12 12:37:16;;;;;;;1.58;0.60;;;8.40;99.90;;;;;;10168530;23;20016;-81
2023/01/12 12:46:04;;;;;;;2.25;0.70;;;8.40;99.90;;;;;;10184417;23;20044;-81
2023/01/12 12:50:17;;;;;;;1.92;0.43;;;8.40;99.90;;;;;;10158409;23;20500;-82
2023/01/12 12:54:20;;;;;;;1.90;0.50;;;8.30;99.90;;;;;;10157099;23;20086;-81
2023/01/12 12:58:20;;;;;;;3.10;0.70;;;8.40;99.90;;;;;;10176971;23;20006;-81
2023/01/12 13:02:53;;;;;;;1.35;0.60;;;8.50;99.90;;;;;;10157797;23;20061;-81
2023/01/12 13:06:53;;;;;;;1.58;0.47;;;8.50;99.90;;;;;;10156505;23;20448;-81
2023/01/12 13:10:56;;;;;;;2.95;0.70;;;8.50;99.90;;;;;;10158503;23;20089;-81
2023/01/12 13:15:24;;;;;;;0.30;0.30;;;8.40;99.90;;;;;;10159144;23;20005;-82
2023/01/12 13:19:36;;;;;;;0.65;0.32;;;8.20;99.90;;;;;;10158789;23;20013;-81
2023/01/12 13:23:46;;;;;;;0.93;0.52;;;8.30;99.90;;;;;;10157929;23;20010;-81
2023/01/12 13:27:46;;;;;;;0.70;0.30;;;8.20;99.90;;;;;;10157946;23;20013;-81
2023/01/12 13:31:47;;;;;;;1.13;0.60;;;8.20;99.90;;;;;;10165455;23;20019;-82
2023/01/12 13:35:47;;;;;;;1.75;0.45;;;8.10;99.90;;;;;;10183341;23;20009;-82
2023/01/12 13:40:17;;;;;;;1.40;0.30;;;8.10;99.90;;;;;;10181546;23;20068;-81
2023/01/12 13:44:33;;;;;;;2.20;0.50;;;8.20;99.90;;;;;;10153016;23;20005;-82
2023/01/12 13:48:35;;;;;;;2.25;0.50;;;8.20;99.90;;;;;;10157388;23;20014;-81
2023/01/12 13:52:37;;;;;;;2.40;0.65;;;8.10;99.90;;;;;;10158918;23;20013;-81
2023/01/12 13:56:38;;;;;;;1.38;0.38;;;8.10;99.90;;;;;;10184062;23;20038;-82
2023/01/12 14:00:39;;;;;;;0.88;0.43;;;8.10;99.90;;;;;;10157523;23;20010;-81
2023/01/12 14:04:48;;;;;;;29.40;9.45;;;8.10;99.90;;;;;;10184083;23;20010;-82
2023/01/12 14:09:26;;;;;;;12.43;3.63;;;8.10;99.90;;;;;;10157155;23;20073;-82
2023/01/12 14:18:47;;;;;;;1.80;1.13;;;8.00;99.90;;;;;;10182417;23;20020;-82
2023/01/12 14:23:10;;;;;;;1.77;0.63;;;8.00;99.90;;;;;;10157617;23;20480;-81
2023/01/12 14:27:29;;;;;;;2.53;0.30;;;8.00;99.90;;;;;;10182419;23;20321;-81
2023/01/12 14:31:35;;;;;;;1.48;0.63;;;7.90;99.90;;;;;;10183359;23;20013;-81
2023/01/12 14:35:42;;;;;;;14.00;5.72;;;7.80;99.90;;;;;;10156829;23;20009;-81
2023/01/12 14:39:45;;;;;;;4.93;1.13;;;7.80;99.90;;;;;;10156859;23;20029;-81
2023/01/12 14:48:26;;;;;;;1.10;0.43;;;7.60;99.90;;;;;;10182856;23;20392;-82
2023/01/12 14:52:31;;;;;;;1.35;0.40;;;7.60;99.90;;;;;;10156834;23;20417;-81
2023/01/12 14:56:48;;;;;;;0.65;0.40;;;7.60;99.90;;;;;;10156578;23;20454;-81
2023/01/12 15:00:48;;;;;;;1.65;0.60;;;7.50;99.90;;;;;;10159958;23;20016;-81
2023/01/12 15:04:57;;;;;;;2.85;0.52;;;7.50;99.90;;;;;;10185270;23;20009;-81
2023/01/12 15:08:59;;;;;;;0.30;0.30;;;7.40;99.90;;;;;;10159438;23;20006;-81
2023/01/12 15:13:24;;;;;;;1.77;0.40;;;7.50;99.90;;;;;;10185598;23;20002;-81
2023/01/12 15:26:03;;;;;;;0.75;0.38;;;7.30;99.90;;;;;;10186168;23;20016;-81
2023/01/12 15:30:05;;;;;;;6.20;0.93;;;7.30;99.90;;;;;;10159130;23;20017;-81
2023/01/12 15:34:05;;;;;;;1.70;0.60;;;7.40;99.90;;;;;;10179373;23;20019;-82
2023/01/12 15:38:12;;;;;;;0.43;0.20;;;7.30;99.90;;;;;;10159854;23;20010;-81
2023/01/12 15:42:20;;;;;;;1.60;0.30;;;7.30;99.90;;;;;;10172824;23;20001;-81
2023/01/12 15:46:21;;;;;;;0.70;0.43;;;7.20;99.90;;;;;;10172982;23;20005;-82
2023/01/12 15:50:22;;;;;;;2.65;0.47;;;7.10;99.90;;;;;;10186403;23;20017;-81
2023/01/12 15:54:22;;;;;;;1.75;0.60;;;7.00;99.90;;;;;;10159508;23;20009;-81
2023/01/12 15:58:23;;;;;;;0.82;0.22;;;6.90;99.90;;;;;;10185183;23;20016;-82
2023/01/12 16:02:35;;;;;;;0.75;0.47;;;6.80;99.90;;;;;;10185726;23;20456;-81
2023/01/12 16:06:36;;;;;;;1.17;0.35;;;6.80;99.90;;;;;;10184972;23;20448;-82
2023/01/12 16:11:07;;;;;;;0.93;0.22;;;6.80;99.90;;;;;;10184759;23;20008;-81
2023/01/12 16:14:57;;;;;;;2.50;0.47;;;6.80;99.90;;;;;;10185039;23;20519;-81
2023/01/12 16:18:59;;;;;;;2.25;0.65;;;6.90;99.90;;;;;;10172286;23;20006;-81
2023/01/12 16:22:59;;;;;;;1.15;0.40;;;7.10;99.90;;;;;;10162829;23;20112;-81
2023/01/12 16:27:00;;;;;;;0.60;0.30;;;7.10;99.90;;;;;;10159548;23;20001;-81
2023/01/12 16:31:11;;;;;;;2.67;0.57;;;7.00;99.90;;;;;;10158956;23;20076;-81
2023/01/12 16:35:12;;;;;;;0.73;0.40;;;6.90;99.90;;;;;;10182319;23;20044;-81
2023/01/12 16:39:13;;;;;;;1.02;0.40;;;6.80;99.90;;;;;;10158580;23;20010;-82
2023/01/12 16:43:19;;;;;;;1.73;0.40;;;6.80;99.90;;;;;;10158343;23;20437;-81
2023/01/12 16:47:20;;;;;;;1.02;0.30;;;6.80;99.90;;;;;;10166267;23;20044;-82
2023/01/12 16:51:21;;;;;;;1.17;0.55;;;6.80;99.90;;;;;;10159304;23;20010;-81
2023/01/12 16:55:22;;;;;;;7.47;0.50;;;6.80;99.90;;;;;;10156986;23;20012;-82
2023/01/12 16:59:22;;;;;;;1.38;0.45;;;6.90;99.90;;;;;;10162630;23;20017;-81
2023/01/12 17:03:23;;;;;;;2.10;0.60;;;7.20;99.90;;;;;;10153621;23;20013;-81
2023/01/12 17:07:24;;;;;;;0.85;0.47;;;7.30;99.90;;;;;;10160328;23;20009;-81
2023/01/12 17:11:26;;;;;;;1.65;0.25;;;7.20;99.90;;;;;;10159054;23;20096;-81
2023/01/12 17:15:27;;;;;;;0.90;0.32;;;7.20;99.90;;;;;;10185218;23;20001;-82
2023/01/12 17:19:29;;;;;;;1.60;0.50;;;7.20;99.90;;;;;;10159895;23;20013;-81
2023/01/12 17:23:29;;;;;;;2.75;0.75;;;7.20;99.90;;;;;;10159978;23;20088;-82
2023/01/12 17:27:30;;;;;;;2.95;0.75;;;6.90;99.90;;;;;;10162699;23;20024;-80
2023/01/12 17:31:30;;;;;;;1.48;0.63;;;6.90;99.90;;;;;;10163922;23;20001;-82
2023/01/12 17:35:34;;;;;;;4.10;0.52;;;6.90;99.90;;;;;;10176844;23;20020;-81
2023/01/12 17:39:36;;;;;;;1.20;0.60;;;6.90;99.90;;;;;;10189595;23;20001;-82
2023/01/12 17:43:36;;;;;;;3.30;0.60;;;6.90;99.90;;;;;;10163079;23;20017;-82
2023/01/12 17:47:37;;;;;;;2.05;0.50;;;6.90;99.90;;;;;;10189613;23;20084;-82
2023/01/12 17:51:38;;;;;;;0.75;0.43;;;6.90;99.90;;;;;;10163349;23;20012;-81
2023/01/12 17:55:39;;;;;;;1.15;0.40;;;6.90;99.90;;;;;;10163027;23;20013;-82
2023/01/12 17:59:40;;;;;;;3.38;0.77;;;6.80;99.90;;;;;;10163049;23;20009;-82
2023/01/12 18:03:40;;;;;;;1.60;0.55;;;6.80;99.90;;;;;;10188256;23;20032;-83
2023/01/12 18:07:41;;;;;;;1.60;0.50;;;6.60;99.90;;;;;;10187581;23;20444;-81
2023/01/12 18:11:41;;;;;;;10.98;5.03;;;6.80;99.90;;;;;;10186602;23;20016;-82
2023/01/12 18:15:42;;;;;;;2.17;1.48;;;6.70;99.90;;;;;;10170930;23;20448;-81
2023/01/12 18:19:42;;;;;;;5.93;3.25;;;6.80;99.90;;;;;;10176135;23;20012;-81
2023/01/12 18:23:43;;;;;;;3.80;2.33;;;6.90;99.90;;;;;;10160172;23;20010;-82
2023/01/12 18:27:44;;;;;;;2.78;1.35;;;6.80;99.90;;;;;;10160786;23;20629;-82
2023/01/12 18:31:46;;;;;;;1.00;0.40;;;6.80;99.90;;;;;;10183005;23;20098;-81
2023/01/12 18:35:46;;;;;;;1.77;0.80;;;6.80;99.90;;;;;;10161247;23;20444;-82
2023/01/12 18:39:48;;;;;;;0.60;0.32;;;6.80;99.90;;;;;;10162372;23;20009;-82
2023/01/12 18:43:50;;;;;;;1.83;0.60;;;6.80;99.90;;;;;;10161183;23;20325;-82
2023/01/12 18:56:30;;;;;;;2.22;0.73;;;6.80;99.90;;;;;;10186543;23;20101;-82
2023/01/12 19:00:30;;;;;;;1.23;0.57;;;6.80;99.90;;;;;;10178893;23;20002;-82
2023/01/12 19:17:29;;;;;;;1.60;0.45;;;6.70;99.90;;;;;;10188532;23;20072;-82
2023/01/12 19:30:08;;;;;;;1.25;0.40;;;6.70;99.90;;;;;;10189166;23;20019;-81
2023/01/12 19:34:08;;;;;;;3.65;0.60;;;6.80;99.90;;;;;;10160188;23;20467;-81
2023/01/12 19:38:10;;;;;;;1.40;0.55;;;6.80;99.90;;;;;;10161361;23;20010;-82
2023/01/12 19:46:31;;;;;;;0.82;0.50;;;6.90;99.90;;;;;;10189439;23;20535;-80
2023/01/12 19:50:33;;;;;;;2.25;0.35;;;6.80;99.90;;;;;;10163360;23;20124;-82
2023/01/12 19:54:34;;;;;;;1.10;0.50;;;6.90;99.90;;;;;;10162270;23;20017;-81
2023/01/12 19:58:35;;;;;;;1.00;0.50;;;6.90;99.90;;;;;;10163207;23;20009;-81
2023/01/12 20:02:35;;;;;;;2.53;1.00;;;6.90;99.90;;;;;;10163899;23;20013;-81
2023/01/12 20:06:36;;;;;;;6.35;2.58;;;7.00;99.90;;;;;;10189899;23;20100;-81
2023/01/12 20:10:37;;;;;;;1.85;0.57;;;6.90;99.90;;;;;;10163937;23;20010;-82
2023/01/12 20:14:37;;;;;;;2.58;0.82;;;6.90;99.90;;;;;;10166067;23;20021;-82
2023/01/12 20:18:42;;;;;;;0.70;0.40;;;6.90;99.90;;;;;;10190479;23;20598;-80
2023/01/12 20:22:43;;;;;;;1.52;0.65;;;6.90;99.90;;;;;;10163512;23;20016;-80
2023/01/12 20:26:43;;;;;;;0.82;0.43;;;6.90;99.90;;;;;;10180495;23;20006;-82
2023/01/12 20:30:44;;;;;;;0.77;0.50;;;6.90;99.90;;;;;;10190028;23;20029;-81
2023/01/12 20:34:44;;;;;;;2.80;0.68;;;7.00;99.90;;;;;;10162984;23;20016;-82
2023/01/12 20:38:46;;;;;;;0.73;0.40;;;6.90;99.90;;;;;;10162682;23;20060;-81
2023/01/12 20:42:46;;;;;;;4.03;0.80;;;6.80;99.90;;;;;;10163585;23;20006;-82
2023/01/12 20:46:47;;;;;;;1.17;0.40;;;6.90;99.90;;;;;;10188089;23;20010;-82
2023/01/12 20:50:47;;;;;;;1.50;0.50;;;7.00;99.90;;;;;;10169844;23;20005;-81
2023/01/12 20:54:48;;;;;;;3.45;0.80;;;6.80;99.90;;;;;;10164073;23;20010;-82
2023/01/12 20:58:49;;;;;;;0.57;0.28;;;6.70;99.90;;;;;;10190532;23;20056;-82
2023/01/12 21:02:49;;;;;;;1.20;0.60;;;6.90;99.90;;;;;;10163467;23;20006;-82
2023/01/12 21:06:50;;;;;;;1.23;0.50;;;6.90;99.90;;;;;;10185271;23;20018;-80
2023/01/12 21:10:52;;;;;;;0.93;0.40;;;6.80;99.90;;;;;;10165101;23;20152;-82
2023/01/12 21:14:53;;;;;;;0.68;0.40;;;6.90;99.90;;;;;;10188718;23;20013;-82
2023/01/12 21:18:53;;;;;;;0.60;0.30;;;6.90;99.90;;;;;;10162794;23;20045;-80
2023/01/12 21:22:54;;;;;;;0.88;0.40;;;6.90;99.90;;;;;;10190187;23;20001;-81
2023/01/12 21:26:55;;;;;;;0.32;0.30;;;6.90;99.90;;;;;;10163244;23;20020;-82
2023/01/12 21:30:59;;;;;;;17.40;3.40;;;6.90;99.90;;;;;;10186967;23;20614;-82
2023/01/12 21:35:00;;;;;;;3.50;0.77;;;6.90;99.90;;;;;;10162581;23;20593;-82
2023/01/12 21:39:00;;;;;;;7.30;0.70;;;6.80;99.90;;;;;;10164920;23;20068;-82
2023/01/12 21:43:07;;;;;;;1.25;0.38;;;6.80;99.90;;;;;;10166391;23;20465;-81
2023/01/12 21:47:07;;;;;;;0.95;0.50;;;6.80;99.90;;;;;;10164909;23;20008;-80
2023/01/12 21:51:11;;;;;;;1.50;0.40;;;6.70;99.90;;;;;;10193194;23;20005;-81
2023/01/12 21:55:12;;;;;;;3.28;0.50;;;6.70;99.90;;;;;;10165790;23;20016;-82
2023/01/12 21:59:13;;;;;;;1.55;0.50;;;6.70;99.90;;;;;;10184738;23;20005;-82
2023/01/12 22:03:13;;;;;;;1.52;0.73;;;6.70;99.90;;;;;;10166323;23;20392;-82
2023/01/12 22:07:14;;;;;;;2.35;0.68;;;6.60;99.90;;;;;;10165739;23;20490;-82
2023/01/12 22:11:15;;;;;;;2.08;0.60;;;6.50;99.90;;;;;;10192159;23;20001;-80
2023/01/12 22:15:16;;;;;;;0.68;0.38;;;6.50;99.90;;;;;;10165230;23;20017;-82
2023/01/12 22:19:17;;;;;;;0.80;0.40;;;6.50;99.90;;;;;;10192386;23;19998;-82
2023/01/12 22:23:17;;;;;;;0.32;0.30;;;6.60;99.90;;;;;;10167687;23;20016;-82
2023/01/12 22:27:18;;;;;;;0.45;0.30;;;6.60;99.90;;;;;;10175470;23;20069;-82
2023/01/12 22:31:21;;;;;;;1.20;0.60;;;6.70;99.90;;;;;;10174545;23;20009;-82
2023/01/12 22:35:22;;;;;;;1.92;0.40;;;6.80;99.90;;;;;;10165987;23;20073;-82
2023/01/12 22:39:22;;;;;;;0.68;0.38;;;6.80;99.90;;;;;;10176000;23;20005;-81
2023/01/12 22:43:26;;;;;;;0.90;0.47;;;6.90;99.90;;;;;;10192929;23;20008;-82
2023/01/12 22:47:26;;;;;;;3.20;0.50;;;6.80;99.90;;;;;;10166310;23;20002;-81
2023/01/12 22:51:28;;;;;;;0.30;0.30;;;6.90;99.90;;;;;;10168059;23;20509;-81